Time;durP1;ratioP1;P1;durP2;ratioP2;P2;SDS_P1;SDS_P2;PMS_P1;PMS_P2;Temp;Humidity;BMP_temperature;BMP_pressure;BME280_temperature;BME280_humidity;BME280_pressure;Samples;Min_cycle;Max_cycle;Signal;HPM_P1;HPM_P2
2022/08/28 00:01:30;;;;;;;6.33;2.27;;;21.80;59.20;;;;;;5075553;28;20458;-72
2022/08/28 00:03:58;;;;;;;4.50;2.30;;;21.80;59.10;;;;;;5075792;28;20471;-72
2022/08/28 00:06:25;;;;;;;5.80;2.20;;;21.80;59.30;;;;;;5075670;28;20445;-72
2022/08/28 00:08:54;;;;;;;10.13;3.17;;;21.80;59.10;;;;;;5075425;28;20445;-72
2022/08/28 00:11:22;;;;;;;8.80;2.33;;;21.80;59.20;;;;;;5075330;28;20447;-72
2022/08/28 00:13:48;;;;;;;6.17;2.03;;;21.70;58.70;;;;;;5075080;28;21056;-72
2022/08/28 00:16:16;;;;;;;4.70;1.90;;;21.70;58.90;;;;;;5075000;28;20452;-72
2022/08/28 00:18:43;;;;;;;6.60;2.20;;;21.70;59.00;;;;;;5074977;28;20448;-72
2022/08/28 00:21:11;;;;;;;5.70;1.90;;;21.70;59.00;;;;;;5075316;28;20455;-72
2022/08/28 00:23:38;;;;;;;12.90;2.20;;;21.70;59.10;;;;;;5074375;28;20504;-72
2022/08/28 00:26:06;;;;;;;6.00;1.93;;;21.70;59.10;;;;;;5075119;28;20954;-72
2022/08/28 00:28:32;;;;;;;5.73;1.77;;;21.60;58.90;;;;;;5075621;28;20461;-72
2022/08/28 00:30:59;;;;;;;5.27;1.93;;;21.60;59.00;;;;;;5075037;28;20440;-72
2022/08/28 00:33:28;;;;;;;6.03;1.93;;;21.60;59.00;;;;;;5075684;28;20233;-72
2022/08/28 00:35:56;;;;;;;7.83;1.67;;;21.60;58.90;;;;;;5075273;28;20816;-72
2022/08/28 00:38:25;;;;;;;6.70;2.10;;;21.60;58.90;;;;;;5074791;28;20856;-72
2022/08/28 00:40:55;;;;;;;6.23;1.57;;;21.60;58.90;;;;;;5074857;28;20457;-72
2022/08/28 00:43:32;;;;;;;5.17;1.93;;;21.60;59.20;;;;;;5075213;28;20469;-72
2022/08/28 00:45:59;;;;;;;8.37;1.50;;;21.50;59.10;;;;;;5075159;28;20444;-71
2022/08/28 00:48:26;;;;;;;4.63;1.93;;;21.50;59.10;;;;;;5075136;28;20445;-71
2022/08/28 00:53:38;;;;;;;6.13;2.20;;;21.50;59.20;;;;;;5074541;28;20473;-72
2022/08/28 00:56:08;;;;;;;5.70;2.00;;;21.50;59.30;;;;;;5075003;28;20203;-72
2022/08/28 00:58:37;;;;;;;5.10;2.13;;;21.50;59.30;;;;;;5075420;28;20469;-72
2022/08/28 01:01:04;;;;;;;7.53;2.10;;;21.50;59.10;;;;;;5075523;28;20449;-72
2022/08/28 01:03:31;;;;;;;4.80;2.40;;;21.50;59.20;;;;;;5075562;28;20472;-72
2022/08/28 01:05:58;;;;;;;7.03;1.90;;;21.50;59.30;;;;;;5075423;28;20449;-72
2022/08/28 01:08:28;;;;;;;5.07;2.20;;;21.50;59.40;;;;;;5075150;28;20830;-72
2022/08/28 01:10:57;;;;;;;8.33;2.40;;;21.40;59.10;;;;;;5077092;28;20198;-72
2022/08/28 01:13:25;;;;;;;5.13;2.03;;;21.40;59.00;;;;;;5075968;28;20576;-72
2022/08/28 01:15:54;;;;;;;5.43;2.37;;;21.40;58.90;;;;;;5076166;28;20457;-72
2022/08/28 01:18:22;;;;;;;5.30;2.70;;;21.30;58.90;;;;;;5076441;28;20843;-72
2022/08/28 01:20:55;;;;;;;6.40;2.40;;;21.40;59.00;;;;;;5076871;28;20460;-73
2022/08/28 01:23:32;;;;;;;7.37;2.43;;;21.30;59.00;;;;;;5078135;28;20484;-72
2022/08/28 01:26:00;;;;;;;7.07;2.43;;;21.40;59.00;;;;;;5076431;28;20455;-72
2022/08/28 01:28:27;;;;;;;6.07;2.07;;;21.40;59.10;;;;;;5076693;28;20453;-72
2022/08/28 01:30:54;;;;;;;7.90;2.53;;;21.40;59.10;;;;;;5076439;28;20834;-72
2022/08/28 01:33:22;;;;;;;7.77;2.50;;;21.30;58.80;;;;;;5078086;28;20503;-72
2022/08/28 01:35:49;;;;;;;4.63;2.43;;;21.30;58.70;;;;;;5078424;28;20551;-72
2022/08/28 01:38:17;;;;;;;5.43;2.40;;;21.30;58.70;;;;;;5076635;28;20477;-72
2022/08/28 01:40:48;;;;;;;7.70;2.63;;;21.30;58.60;;;;;;5077191;28;20905;-72
2022/08/28 01:43:18;;;;;;;5.40;2.30;;;21.30;58.70;;;;;;5073922;28;20465;-72
2022/08/28 01:45:51;;;;;;;4.90;2.70;;;21.30;58.60;;;;;;5073914;28;20441;-72
2022/08/28 01:48:19;;;;;;;6.87;3.30;;;21.30;58.70;;;;;;5073785;28;20429;-72
2022/08/28 01:50:46;;;;;;;6.37;2.70;;;21.30;58.70;;;;;;5073225;28;20950;-72
2022/08/28 01:53:16;;;;;;;9.03;2.73;;;21.30;58.70;;;;;;5073722;28;20476;-72
2022/08/28 01:55:44;;;;;;;8.23;2.43;;;21.30;58.90;;;;;;5073862;28;20453;-72
2022/08/28 01:58:12;;;;;;;5.40;2.70;;;21.30;58.90;;;;;;5073094;28;20488;-72
2022/08/28 02:00:40;;;;;;;5.20;2.83;;;21.20;58.80;;;;;;5073150;28;20831;-72
2022/08/28 02:03:07;;;;;;;6.60;2.70;;;21.20;58.70;;;;;;5073332;28;20469;-72
2022/08/28 02:05:36;;;;;;;5.17;3.00;;;21.20;58.70;;;;;;5073363;28;20463;-72
2022/08/28 02:08:05;;;;;;;7.33;3.50;;;21.20;58.80;;;;;;5073479;28;20449;-72
2022/08/28 02:10:34;;;;;;;10.17;3.10;;;21.20;58.80;;;;;;5073439;28;20455;-72
2022/08/28 02:13:02;;;;;;;8.27;2.80;;;21.20;58.80;;;;;;5073197;28;20500;-72
2022/08/28 02:15:31;;;;;;;7.07;3.23;;;21.20;59.00;;;;;;5073498;28;20452;-72
2022/08/28 02:18:00;;;;;;;6.37;2.90;;;21.10;59.00;;;;;;5073250;28;20473;-72
2022/08/28 02:20:27;;;;;;;7.27;3.40;;;21.10;59.00;;;;;;5073104;28;20445;-72
2022/08/28 02:22:56;;;;;;;6.90;3.47;;;21.10;59.00;;;;;;5055157;28;20829;-72
2022/08/28 02:25:23;;;;;;;12.03;4.40;;;21.10;59.00;;;;;;5073153;28;20437;-72
2022/08/28 02:27:50;;;;;;;6.93;3.30;;;21.00;58.90;;;;;;5073196;28;20449;-72
2022/08/28 02:30:18;;;;;;;8.57;3.30;;;21.00;58.90;;;;;;5073257;28;20441;-72
2022/08/28 02:32:45;;;;;;;10.57;4.13;;;20.90;58.90;;;;;;5073541;28;20509;-72
2022/08/28 02:35:16;;;;;;;9.27;3.20;;;20.90;58.90;;;;;;5072822;28;20960;-72
2022/08/28 02:37:44;;;;;;;5.13;3.20;;;20.90;59.00;;;;;;5073015;28;20564;-72
2022/08/28 02:40:12;;;;;;;8.67;3.80;;;20.80;59.00;;;;;;5073109;28;20449;-72
2022/08/28 02:42:40;;;;;;;8.97;3.60;;;20.80;59.00;;;;;;5072872;28;20479;-72
2022/08/28 02:45:10;;;;;;;8.03;3.83;;;20.80;59.10;;;;;;5072996;28;20460;-72
2022/08/28 02:47:37;;;;;;;8.33;3.53;;;20.70;59.10;;;;;;5055529;28;20798;-72
2022/08/28 02:50:04;;;;;;;9.70;4.10;;;20.70;59.20;;;;;;5072850;28;20455;-72
2022/08/28 02:52:33;;;;;;;5.73;3.70;;;20.60;59.30;;;;;;5072479;28;21033;-72
2022/08/28 02:55:00;;;;;;;8.87;4.27;;;20.60;59.30;;;;;;5073113;28;20452;-72
2022/08/28 02:57:26;;;;;;;11.10;4.43;;;20.60;59.50;;;;;;5072598;28;20849;-72
2022/08/28 02:59:53;;;;;;;8.90;4.03;;;20.50;59.40;;;;;;5072986;28;20445;-72
2022/08/28 03:02:20;;;;;;;8.70;4.07;;;20.50;59.50;;;;;;5073076;28;20468;-72
2022/08/28 03:04:47;;;;;;;7.13;4.00;;;20.40;59.60;;;;;;5073576;28;20824;-72
2022/08/28 03:07:15;;;;;;;7.43;3.93;;;20.40;59.80;;;;;;5076486;28;20456;-72
2022/08/28 03:09:44;;;;;;;12.13;4.77;;;20.40;59.90;;;;;;5076278;28;20464;-72
2022/08/28 03:12:12;;;;;;;5.43;4.23;;;20.30;60.00;;;;;;5076381;28;20479;-72
2022/08/28 03:14:39;;;;;;;10.20;4.10;;;20.30;60.10;;;;;;5076411;28;20444;-72
2022/08/28 03:17:06;;;;;;;10.60;4.17;;;20.20;60.10;;;;;;5076235;28;20448;-72
2022/08/28 03:19:33;;;;;;;10.07;4.37;;;20.20;60.20;;;;;;5076391;28;20448;-72
2022/08/28 03:22:00;;;;;;;8.43;4.30;;;20.20;60.40;;;;;;5076035;28;20933;-72
2022/08/28 03:24:27;;;;;;;13.00;4.53;;;20.20;60.60;;;;;;5075694;28;20858;-72
2022/08/28 03:26:55;;;;;;;8.17;4.10;;;20.10;60.70;;;;;;5076558;28;20456;-72
2022/08/28 03:29:22;;;;;;;10.20;4.20;;;20.10;60.90;;;;;;5076101;28;20455;-72
2022/08/28 03:31:49;;;;;;;8.03;3.50;;;20.10;61.50;;;;;;5075687;28;20965;-72
2022/08/28 03:34:16;;;;;;;8.80;3.90;;;20.00;61.20;;;;;;5075685;28;20540;-72
2022/08/28 03:36:43;;;;;;;10.60;4.77;;;20.00;61.20;;;;;;5075837;28;20463;-72
2022/08/28 03:39:10;;;;;;;8.03;4.50;;;20.00;61.30;;;;;;5076185;28;20480;-72
2022/08/28 03:41:36;;;;;;;11.30;4.20;;;20.00;61.50;;;;;;5075894;28;20452;-72
2022/08/28 03:44:05;;;;;;;11.37;5.43;;;20.00;61.50;;;;;;5075757;28;20464;-72
2022/08/28 03:46:33;;;;;;;8.03;4.53;;;19.90;61.50;;;;;;5075915;28;20471;-72
2022/08/28 03:49:02;;;;;;;7.07;3.60;;;19.90;61.80;;;;;;5075438;28;20453;-72
2022/08/28 03:51:31;;;;;;;8.20;4.77;;;19.90;61.90;;;;;;5075902;28;20834;-72
2022/08/28 03:53:59;;;;;;;7.30;4.07;;;19.90;62.10;;;;;;5075285;28;20469;-72
2022/08/28 03:56:27;;;;;;;9.80;4.37;;;19.80;62.10;;;;;;5075674;28;20449;-72
2022/08/28 03:58:57;;;;;;;8.70;4.17;;;19.80;62.10;;;;;;5075712;28;20481;-72
2022/08/28 04:01:26;;;;;;;8.63;4.07;;;19.80;62.20;;;;;;5075687;28;20449;-72
2022/08/28 04:03:53;;;;;;;10.50;3.90;;;19.70;62.30;;;;;;5075466;28;20503;-72
2022/08/28 04:06:20;;;;;;;8.60;3.57;;;19.70;62.50;;;;;;5075414;28;20448;-72
2022/08/28 04:08:47;;;;;;;7.40;4.03;;;19.70;62.70;;;;;;5075045;28;20968;-72
2022/08/28 04:11:14;;;;;;;15.53;5.17;;;19.70;62.90;;;;;;5075222;28;20484;-72
2022/08/28 04:13:41;;;;;;;8.33;4.50;;;19.60;62.80;;;;;;5075271;28;20469;-72
2022/08/28 04:16:10;;;;;;;12.03;4.87;;;19.60;62.90;;;;;;5074310;28;20812;-72
2022/08/28 04:18:40;;;;;;;6.07;4.10;;;19.60;63.00;;;;;;5074819;28;20480;-72
2022/08/28 04:21:09;;;;;;;7.10;3.93;;;19.60;63.10;;;;;;5075774;28;20432;-72
2022/08/28 04:23:38;;;;;;;7.77;3.77;;;19.50;63.00;;;;;;5074600;28;20997;-72
2022/08/28 04:26:05;;;;;;;8.67;4.00;;;19.50;63.20;;;;;;5074988;28;20494;-73
2022/08/28 04:28:32;;;;;;;7.73;4.20;;;19.50;63.30;;;;;;5075106;28;20437;-73
2022/08/28 04:30:59;;;;;;;10.03;3.70;;;19.50;63.50;;;;;;5074830;28;20452;-73
2022/08/28 04:33:27;;;;;;;7.67;4.70;;;19.40;63.50;;;;;;5074852;28;20477;-73
2022/08/28 04:35:56;;;;;;;12.70;4.77;;;19.40;63.70;;;;;;5074849;28;20535;-73
2022/08/28 04:38:22;;;;;;;12.43;5.50;;;19.40;63.90;;;;;;5074765;28;20483;-73
2022/08/28 04:40:49;;;;;;;12.30;4.30;;;19.40;64.10;;;;;;5056626;28;20484;-73
2022/08/28 04:43:16;;;;;;;11.43;4.77;;;19.40;64.20;;;;;;5074354;28;21011;-73
2022/08/28 04:45:45;;;;;;;8.87;4.93;;;19.30;64.10;;;;;;5074675;28;20453;-73
2022/08/28 04:48:13;;;;;;;7.27;3.93;;;19.30;64.30;;;;;;5074614;28;20445;-73
2022/08/28 04:50:40;;;;;;;8.57;4.17;;;19.30;64.60;;;;;;5074409;28;20456;-73
2022/08/28 04:53:09;;;;;;;8.53;4.60;;;19.30;64.70;;;;;;5074525;28;20460;-73
2022/08/28 04:55:40;;;;;;;9.70;4.80;;;19.30;64.80;;;;;;5074500;28;20456;-73
2022/08/28 04:58:08;;;;;;;11.80;5.43;;;19.20;64.80;;;;;;5074181;28;20980;-73
2022/08/28 05:00:36;;;;;;;8.87;4.10;;;19.20;65.00;;;;;;5074480;28;20499;-73
2022/08/28 05:03:03;;;;;;;11.27;5.47;;;19.20;65.30;;;;;;5074523;28;20467;-72
2022/08/28 05:05:30;;;;;;;9.80;5.03;;;19.10;65.40;;;;;;5074148;28;21006;-73
2022/08/28 05:07:57;;;;;;;11.73;5.00;;;19.10;65.60;;;;;;5074291;28;20468;-73
2022/08/28 05:10:26;;;;;;;7.13;4.27;;;19.10;65.80;;;;;;5074187;28;20792;-73
2022/08/28 05:12:53;;;;;;;9.83;4.33;;;19.10;65.90;;;;;;5074110;28;20487;-73
2022/08/28 05:15:20;;;;;;;10.37;5.00;;;19.20;66.20;;;;;;5073747;28;20961;-73
2022/08/28 05:17:47;;;;;;;12.03;4.53;;;19.10;66.30;;;;;;5073895;28;20449;-73
2022/08/28 05:20:14;;;;;;;6.43;4.67;;;19.10;66.40;;;;;;5073912;28;20999;-73
2022/08/28 05:22:41;;;;;;;10.33;4.13;;;19.10;66.60;;;;;;5073901;28;20500;-72
2022/08/28 05:25:08;;;;;;;7.77;3.90;;;19.10;66.80;;;;;;5073624;28;20875;-72
2022/08/28 05:27:39;;;;;;;7.77;3.93;;;19.10;67.30;;;;;;5073288;28;20946;-72
2022/08/28 05:30:07;;;;;;;11.40;4.07;;;19.20;67.60;;;;;;5073896;28;20438;-72
2022/08/28 05:32:33;;;;;;;11.13;3.83;;;19.20;67.70;;;;;;5073868;28;20468;-72
2022/08/28 05:35:00;;;;;;;6.00;3.87;;;19.20;68.00;;;;;;5073670;28;20452;-72
2022/08/28 05:37:27;;;;;;;5.70;3.47;;;19.20;68.20;;;;;;5073811;28;20456;-72
2022/08/28 05:39:54;;;;;;;10.20;3.70;;;19.30;68.40;;;;;;5073768;28;20484;-72
2022/08/28 05:42:21;;;;;;;8.77;3.20;;;19.40;68.60;;;;;;5073247;28;20473;-72
2022/08/28 05:44:49;;;;;;;6.00;3.20;;;19.40;68.50;;;;;;5073780;28;20449;-72
2022/08/28 05:47:15;;;;;;;7.50;2.90;;;19.50;68.30;;;;;;5073342;28;20945;-72
2022/08/28 05:49:42;;;;;;;6.73;3.83;;;19.50;68.00;;;;;;5073479;28;20441;-72
2022/08/28 05:52:09;;;;;;;10.20;3.90;;;19.60;67.90;;;;;;5073464;28;20460;-72
2022/08/28 05:54:36;;;;;;;6.53;2.70;;;19.70;67.60;;;;;;5073530;28;20445;-72
2022/08/28 05:57:03;;;;;;;7.97;3.53;;;19.70;67.40;;;;;;5073546;28;20455;-72
2022/08/28 05:59:30;;;;;;;11.23;3.60;;;19.70;66.90;;;;;;5073503;28;20488;-72
2022/08/28 06:01:59;;;;;;;9.63;3.80;;;19.80;67.90;;;;;;5073574;28;20502;-72
2022/08/28 06:04:27;;;;;;;4.87;2.90;;;19.90;67.90;;;;;;5073124;28;20930;-72
2022/08/28 06:06:54;;;;;;;7.33;3.17;;;20.00;67.10;;;;;;5073132;28;20452;-73
2022/08/28 06:09:23;;;;;;;7.27;3.40;;;20.00;66.80;;;;;;5073213;28;20463;-72
2022/08/28 06:11:50;;;;;;;6.33;3.37;;;20.10;66.40;;;;;;5073426;28;20527;-72
2022/08/28 06:14:19;;;;;;;5.97;3.13;;;20.20;66.10;;;;;;5073558;28;20451;-72
2022/08/28 06:16:48;;;;;;;6.20;2.63;;;20.20;65.40;;;;;;5073316;28;20484;-72
2022/08/28 06:19:17;;;;;;;8.90;3.50;;;20.30;65.40;;;;;;5073300;28;20477;-72
2022/08/28 06:21:45;;;;;;;8.87;3.10;;;20.30;65.50;;;;;;5073042;28;20491;-72
2022/08/28 06:24:12;;;;;;;8.77;3.27;;;20.40;65.10;;;;;;5072461;28;20473;-72
2022/08/28 06:26:39;;;;;;;11.83;3.37;;;20.50;64.80;;;;;;5073228;28;20452;-72
2022/08/28 06:29:09;;;;;;;6.30;3.30;;;20.50;65.10;;;;;;5073372;28;20445;-72
2022/08/28 06:31:36;;;;;;;7.50;3.80;;;20.60;63.80;;;;;;5073420;28;20457;-73
2022/08/28 06:34:03;;;;;;;9.17;3.17;;;20.60;63.70;;;;;;5073332;28;20480;-73
2022/08/28 06:36:33;;;;;;;9.83;3.17;;;20.60;63.20;;;;;;5073177;28;20452;-73
2022/08/28 06:39:02;;;;;;;7.43;3.37;;;20.70;63.40;;;;;;5073114;28;20578;-74
2022/08/28 06:41:30;;;;;;;8.37;3.40;;;20.70;63.00;;;;;;5076525;28;20433;-74
2022/08/28 06:43:58;;;;;;;8.10;2.90;;;20.80;62.70;;;;;;5077359;28;20559;-74
2022/08/28 06:46:25;;;;;;;11.30;3.30;;;20.90;62.50;;;;;;5076714;28;20449;-73
2022/08/28 06:48:53;;;;;;;15.63;3.73;;;21.00;62.60;;;;;;5076839;28;20452;-74
2022/08/28 06:51:20;;;;;;;16.50;3.63;;;21.00;62.90;;;;;;5076841;28;20456;-74
2022/08/28 06:53:48;;;;;;;7.17;2.87;;;21.10;62.60;;;;;;5076324;28;20472;-74
2022/08/28 06:56:18;;;;;;;11.50;3.90;;;21.10;61.90;;;;;;5076876;28;20441;-74
2022/08/28 06:58:47;;;;;;;5.73;3.53;;;21.20;61.20;;;;;;5076744;28;20461;-74
2022/08/28 07:01:16;;;;;;;6.47;3.30;;;21.30;60.90;;;;;;5076616;28;20449;-74
2022/08/28 07:03:45;;;;;;;7.90;3.70;;;21.40;60.80;;;;;;5076986;28;20870;-74
2022/08/28 07:06:13;;;;;;;8.47;2.83;;;21.50;60.70;;;;;;5077137;28;20443;-69
2022/08/28 07:08:41;;;;;;;10.30;2.87;;;21.60;58.70;;;;;;5076901;28;20448;-69
2022/08/28 07:11:15;;;;;;;9.77;2.60;;;21.70;58.30;;;;;;5076845;28;20433;-74
2022/08/28 07:13:43;;;;;;;9.13;3.10;;;21.80;58.40;;;;;;5076640;28;20479;-74
2022/08/28 07:16:11;;;;;;;4.60;2.43;;;21.90;59.00;;;;;;5076556;28;20449;-74
2022/08/28 07:18:39;;;;;;;8.10;3.10;;;22.00;58.50;;;;;;5076293;28;20905;-74
2022/08/28 07:21:06;;;;;;;10.63;2.50;;;22.10;58.30;;;;;;5076293;28;20444;-74
2022/08/28 07:23:35;;;;;;;6.07;2.63;;;22.10;57.90;;;;;;5076050;28;20563;-74
2022/08/28 07:26:03;;;;;;;6.60;2.63;;;22.20;57.70;;;;;;5076250;28;20437;-74
2022/08/28 07:28:31;;;;;;;6.13;2.80;;;22.30;57.30;;;;;;5076274;28;20440;-74
2022/08/28 07:30:59;;;;;;;11.40;3.27;;;22.30;57.00;;;;;;5076561;28;20470;-73
2022/08/28 07:33:28;;;;;;;6.53;2.83;;;22.40;57.10;;;;;;5076142;28;20491;-73
2022/08/28 07:35:55;;;;;;;5.63;2.80;;;22.50;57.10;;;;;;5076259;28;20445;-73
2022/08/28 07:38:24;;;;;;;6.57;3.00;;;22.60;56.90;;;;;;5076269;28;20452;-73
2022/08/28 07:40:50;;;;;;;5.43;2.63;;;22.60;56.60;;;;;;5075720;28;20493;-74
2022/08/28 07:46:06;;;;;;;11.80;3.00;;;22.80;56.50;;;;;;5075825;28;20936;-74
2022/08/28 07:48:34;;;;;;;7.60;3.30;;;22.80;56.00;;;;;;5075236;28;20804;-74
2022/08/28 07:51:01;;;;;;;10.73;2.90;;;22.90;55.90;;;;;;5075433;28;20456;-74
2022/08/28 07:53:28;;;;;;;14.00;3.50;;;22.90;55.50;;;;;;5075757;28;20480;-74
2022/08/28 07:55:55;;;;;;;9.13;3.70;;;23.00;55.50;;;;;;5075796;28;20449;-74
2022/08/28 07:58:24;;;;;;;7.43;2.87;;;23.10;55.20;;;;;;5075987;28;20475;-74
2022/08/28 08:00:52;;;;;;;6.43;2.70;;;23.10;55.00;;;;;;5075945;28;20484;-74
2022/08/28 08:03:21;;;;;;;8.70;3.60;;;23.20;54.90;;;;;;5075513;28;20483;-74
2022/08/28 08:05:53;;;;;;;7.97;3.30;;;23.20;54.90;;;;;;5075788;28;20510;-74
2022/08/28 08:08:20;;;;;;;11.07;3.43;;;23.20;54.60;;;;;;5075666;28;20437;-74
2022/08/28 08:10:56;;;;;;;9.23;2.63;;;23.40;54.90;;;;;;5075377;28;20494;-74
2022/08/28 08:13:23;;;;;;;11.80;3.00;;;23.40;54.30;;;;;;5075721;28;20557;-73
2022/08/28 08:15:50;;;;;;;7.90;2.40;;;23.40;53.80;;;;;;5076450;28;20452;-74
2022/08/28 08:18:17;;;;;;;7.83;2.73;;;23.40;53.90;;;;;;5075421;28;20843;-74
2022/08/28 08:20:46;;;;;;;4.63;2.00;;;23.30;53.80;;;;;;5075040;28;20577;-74
2022/08/28 08:23:14;;;;;;;5.13;2.63;;;23.20;53.90;;;;;;5074864;28;20937;-74
2022/08/28 08:25:41;;;;;;;7.17;2.63;;;23.30;53.90;;;;;;5075489;28;20563;-74
2022/08/28 08:28:08;;;;;;;5.73;2.43;;;23.40;53.60;;;;;;5075489;28;20453;-75
2022/08/28 08:30:34;;;;;;;5.07;2.53;;;23.60;53.30;;;;;;5075387;28;20437;-75
2022/08/28 08:33:01;;;;;;;5.50;2.47;;;23.80;52.80;;;;;;5075040;28;20556;-75
2022/08/28 08:35:28;;;;;;;6.90;2.43;;;24.10;52.20;;;;;;5075346;28;20444;-75
2022/08/28 08:37:57;;;;;;;6.63;2.60;;;24.30;51.50;;;;;;5075379;28;20449;-75
2022/08/28 08:40:24;;;;;;;8.43;2.87;;;24.60;51.00;;;;;;5075065;28;20485;-75
2022/08/28 08:42:56;;;;;;;7.87;2.53;;;24.80;50.40;;;;;;5075098;28;20468;-75
2022/08/28 08:45:26;;;;;;;7.43;2.40;;;25.10;49.70;;;;;;5075370;28;20492;-74
2022/08/28 08:47:56;;;;;;;5.93;2.70;;;25.20;49.00;;;;;;5076267;28;20433;-74
2022/08/28 08:50:25;;;;;;;6.27;2.43;;;25.60;48.60;;;;;;5076223;28;20452;-74
2022/08/28 08:53:11;;;;;;;7.00;2.70;;;25.90;48.20;;;;;;5074781;28;21013;-74
2022/08/28 08:55:45;;;;;;;11.77;2.90;;;26.20;47.50;;;;;;5075148;28;20460;-74
2022/08/28 08:58:24;;;;;;;6.70;2.53;;;26.40;46.60;;;;;;5074505;28;20437;-74
2022/08/28 09:00:57;;;;;;;5.03;2.47;;;26.60;46.50;;;;;;5074377;28;20472;-72
2022/08/28 09:03:32;;;;;;;6.43;2.63;;;26.70;45.80;;;;;;5073327;28;20468;-74
2022/08/28 09:06:03;;;;;;;6.80;2.27;;;26.90;45.30;;;;;;5074310;28;20455;-74
2022/08/28 09:08:39;;;;;;;5.07;2.70;;;27.00;44.80;;;;;;5074322;28;20434;-74
2022/08/28 09:11:15;;;;;;;6.60;2.50;;;27.20;44.50;;;;;;5074170;28;20425;-74
2022/08/28 09:13:50;;;;;;;8.00;2.80;;;27.40;44.50;;;;;;5074413;28;20832;-72
2022/08/28 09:16:26;;;;;;;7.80;3.13;;;27.60;43.50;;;;;;5074205;28;20435;-72
2022/08/28 09:18:55;;;;;;;6.07;2.50;;;27.80;43.30;;;;;;5074209;28;20433;-72
2022/08/28 09:21:28;;;;;;;10.17;4.17;;;28.00;42.10;;;;;;5073942;28;20480;-72
2022/08/28 09:23:59;;;;;;;5.20;2.80;;;28.10;41.80;;;;;;5073424;28;20495;-74
2022/08/28 09:26:26;;;;;;;7.70;2.70;;;28.20;40.90;;;;;;5074767;28;20448;-74
2022/08/28 09:29:01;;;;;;;4.57;2.27;;;28.30;41.20;;;;;;5073661;28;20992;-73
2022/08/28 09:31:35;;;;;;;12.73;2.90;;;28.50;40.90;;;;;;5073710;28;20494;-73
2022/08/28 09:34:25;;;;;;;4.57;2.50;;;28.60;40.30;;;;;;5073901;28;20461;-73
2022/08/28 09:36:53;;;;;;;4.43;2.30;;;28.70;40.20;;;;;;5073617;28;20814;-73
2022/08/28 09:39:23;;;;;;;7.90;2.73;;;28.80;39.80;;;;;;5073895;28;20504;-74
2022/08/28 09:44:59;;;;;;;4.20;2.63;;;29.10;39.30;;;;;;5073893;28;20399;-74
2022/08/28 09:47:48;;;;;;;4.20;2.67;;;29.40;38.60;;;;;;5073907;28;20440;-74
2022/08/28 09:50:21;;;;;;;6.00;3.00;;;29.60;38.00;;;;;;5074042;28;20433;-73
2022/08/28 09:52:49;;;;;;;5.00;2.30;;;29.70;37.60;;;;;;5073407;28;20981;-74
2022/08/28 09:55:26;;;;;;;6.70;2.47;;;29.90;37.10;;;;;;5073741;28;20449;-74
2022/08/28 09:57:54;;;;;;;6.77;3.07;;;30.10;36.30;;;;;;5073913;28;20521;-74
2022/08/28 10:00:21;;;;;;;6.70;2.60;;;30.30;35.60;;;;;;5073634;28;20516;-74
2022/08/28 10:02:57;;;;;;;3.43;2.47;;;30.50;35.60;;;;;;5073480;28;20472;-74
2022/08/28 10:05:36;;;;;;;8.13;3.00;;;30.70;34.90;;;;;;5073389;28;20913;-74
2022/08/28 10:08:11;;;;;;;4.80;2.57;;;31.00;34.10;;;;;;5074360;28;20917;-74
2022/08/28 10:10:43;;;;;;;4.90;2.30;;;31.20;33.90;;;;;;5074493;28;20437;-73
2022/08/28 10:13:16;;;;;;;4.80;2.60;;;31.50;33.70;;;;;;5073680;28;20477;-74
2022/08/28 10:15:59;;;;;;;6.90;2.37;;;31.80;33.10;;;;;;5078112;28;20464;-74
2022/08/28 10:18:35;;;;;;;4.80;3.17;;;32.20;32.60;;;;;;5077455;28;20947;-74
2022/08/28 10:21:12;;;;;;;3.83;2.93;;;32.50;31.50;;;;;;5077333;28;20928;-74
2022/08/28 10:23:59;;;;;;;4.00;3.00;;;32.90;31.10;;;;;;5077244;28;20856;-74
2022/08/28 10:26:39;;;;;;;4.10;2.63;;;33.30;30.70;;;;;;5077296;28;20428;-74
2022/08/28 10:29:23;;;;;;;7.90;3.37;;;33.70;29.60;;;;;;5077113;28;20439;-74
2022/08/28 10:32:00;;;;;;;4.10;2.60;;;34.20;28.90;;;;;;5077443;28;20803;-74
2022/08/28 10:34:40;;;;;;;6.93;3.83;;;34.60;28.30;;;;;;5077562;28;20436;-74
2022/08/28 10:37:15;;;;;;;8.37;2.73;;;35.00;27.30;;;;;;5077613;28;20499;-74
2022/08/28 10:39:50;;;;;;;4.83;2.83;;;35.30;26.60;;;;;;5076895;28;20475;-74
2022/08/28 10:42:26;;;;;;;8.80;2.90;;;35.70;26.50;;;;;;5076999;28;20475;-74
2022/08/28 10:44:58;;;;;;;5.17;2.70;;;36.10;26.30;;;;;;5077233;28;20557;-74
2022/08/28 10:47:27;;;;;;;5.47;2.50;;;36.60;25.70;;;;;;5077121;28;20428;-74
2022/08/28 10:50:00;;;;;;;4.07;2.63;;;37.10;25.00;;;;;;5077027;28;20440;-74
2022/08/28 10:52:32;;;;;;;5.10;2.60;;;37.50;24.10;;;;;;5076917;28;20482;-73
2022/08/28 10:55:05;;;;;;;5.43;2.60;;;38.10;23.70;;;;;;5076738;28;20209;-73
2022/08/28 10:57:36;;;;;;;5.55;2.75;;;38.50;21.90;;;;;;5077168;28;20201;-73
2022/08/28 11:00:08;;;;;;;3.20;2.30;;;38.80;22.00;;;;;;5076878;28;20704;-72
2022/08/28 11:02:36;;;;;;;6.32;3.17;;;39.10;22.10;;;;;;5076651;28;20710;-72
2022/08/28 11:05:05;;;;;;;4.80;2.50;;;39.50;21.70;;;;;;5077087;28;20202;-73
2022/08/28 11:07:36;;;;;;;5.43;2.58;;;39.90;21.30;;;;;;5077052;28;20217;-73
2022/08/28 11:10:38;;;;;;;4.72;2.60;;;40.10;21.00;;;;;;5076829;28;20193;-73
2022/08/28 11:13:08;;;;;;;4.80;2.80;;;40.40;20.80;;;;;;5069852;28;20232;-74
2022/08/28 11:15:52;;;;;;;7.50;3.45;;;40.80;20.20;;;;;;5076567;28;20190;-73
2022/08/28 11:19:00;;;;;;;3.90;2.40;;;41.20;19.90;;;;;;5076200;28;20648;-73
2022/08/28 11:21:31;;;;;;;5.47;3.08;;;41.60;19.40;;;;;;5076342;28;20234;-74
2022/08/28 11:24:05;;;;;;;4.65;2.42;;;41.90;19.00;;;;;;5076322;28;20291;-73
2022/08/28 11:26:40;;;;;;;4.55;2.75;;;42.10;18.70;;;;;;5075988;28;20198;-70
2022/08/28 11:29:08;;;;;;;4.93;2.63;;;42.40;18.60;;;;;;5076628;28;20182;-71
2022/08/28 11:31:39;;;;;;;6.22;2.80;;;42.60;18.40;;;;;;5076331;28;20193;-72
2022/08/28 11:34:07;;;;;;;4.32;2.60;;;42.80;18.20;;;;;;5075924;28;20186;-72
2022/08/28 11:36:58;;;;;;;3.85;2.50;;;42.90;17.90;;;;;;5076327;28;20210;-72
2022/08/28 11:39:25;;;;;;;4.38;2.50;;;43.10;18.00;;;;;;5076070;28;20206;-72
2022/08/28 11:42:30;;;;;;;4.05;2.90;;;43.20;17.80;;;;;;5075956;28;20206;-71
2022/08/28 11:45:00;;;;;;;5.85;2.90;;;43.30;17.00;;;;;;5076083;28;20574;-71
2022/08/28 11:47:50;;;;;;;5.18;3.10;;;43.40;17.40;;;;;;5076482;28;20294;-71
2022/08/28 11:50:25;;;;;;;7.43;2.53;;;43.60;17.40;;;;;;5075925;28;20279;-72
2022/08/28 11:53:25;;;;;;;3.40;2.75;;;43.80;17.10;;;;;;5076003;28;20229;-72
2022/08/28 11:56:28;;;;;;;4.00;2.85;;;44.00;16.80;;;;;;5075852;28;20190;-72
2022/08/28 11:59:01;;;;;;;5.00;2.47;;;44.10;16.70;;;;;;5076247;28;20209;-72
2022/08/28 12:01:34;;;;;;;6.43;3.10;;;44.20;16.40;;;;;;5075344;28;20202;-72
2022/08/28 12:04:03;;;;;;;4.93;2.60;;;44.30;15.60;;;;;;5075166;28;20275;-72
2022/08/28 12:06:53;;;;;;;4.28;2.40;;;44.10;15.90;;;;;;5075502;28;20206;-72
2022/08/28 12:09:38;;;;;;;4.45;2.72;;;44.00;16.70;;;;;;5075815;28;20191;-72
2022/08/28 12:12:10;;;;;;;4.47;2.30;;;44.20;16.60;;;;;;5075387;28;20710;-72
2022/08/28 12:15:16;;;;;;;5.28;2.58;;;44.30;16.20;;;;;;5075561;28;20277;-72
2022/08/28 12:17:52;;;;;;;4.45;2.30;;;44.70;16.30;;;;;;5075403;28;20197;-72
2022/08/28 12:20:40;;;;;;;3.97;2.50;;;45.10;16.10;;;;;;5075585;28;20320;-72
2022/08/28 12:23:33;;;;;;;7.05;2.55;;;45.60;15.80;;;;;;5074755;28;21223;-72
2022/08/28 12:26:02;;;;;;;3.80;2.60;;;45.80;14.30;;;;;;5075780;28;20243;-73
2022/08/28 12:28:32;;;;;;;4.35;2.60;;;45.80;15.00;;;;;;5075300;28;20194;-70
2022/08/28 12:34:15;;;;;;;4.28;2.22;;;46.00;14.90;;;;;;5068608;28;20678;-71
2022/08/28 12:36:42;;;;;;;7.70;2.75;;;46.30;14.50;;;;;;5074738;28;20658;-70
2022/08/28 12:39:17;;;;;;;4.35;2.10;;;46.50;14.40;;;;;;5073875;28;20206;-70
2022/08/28 12:41:44;;;;;;;4.30;2.20;;;46.50;13.70;;;;;;5074915;28;20210;-70
2022/08/28 12:44:14;;;;;;;5.68;2.00;;;46.20;14.00;;;;;;5075021;28;20225;-70
2022/08/28 12:46:43;;;;;;;4.45;2.55;;;46.30;14.60;;;;;;5074889;28;20697;-70
2022/08/28 12:49:30;;;;;;;4.40;2.25;;;46.50;14.50;;;;;;5074728;28;20198;-71
2022/08/28 12:52:12;;;;;;;5.68;2.42;;;46.80;13.80;;;;;;5074685;28;20182;-72
2022/08/28 12:54:40;;;;;;;3.53;2.22;;;47.10;13.90;;;;;;5075176;28;20186;-71
2022/08/28 12:57:09;;;;;;;4.95;2.28;;;47.40;13.60;;;;;;5074687;28;20187;-72
2022/08/28 12:59:37;;;;;;;3.05;2.05;;;47.80;13.30;;;;;;5074712;28;20206;-72
2022/08/28 13:02:08;;;;;;;5.07;1.98;;;48.00;13.30;;;;;;5074579;28;20230;-72
2022/08/28 13:04:39;;;;;;;4.60;2.05;;;48.40;13.10;;;;;;5074212;28;20186;-72
2022/08/28 13:07:10;;;;;;;4.60;2.10;;;48.40;12.50;;;;;;5074683;28;20612;-72
2022/08/28 13:09:38;;;;;;;2.85;2.13;;;48.50;12.60;;;;;;5074239;28;20182;-73
2022/08/28 13:12:05;;;;;;;4.35;2.15;;;48.60;12.50;;;;;;5074338;28;20218;-72
2022/08/28 13:14:41;;;;;;;2.20;1.70;;;48.70;11.80;;;;;;5074208;28;20206;-72